Warning: Javascript must be enabled to use all the features on this page!


Page Loading - Please Wait...

Click to hideNews Bulletins

Peak Streamflow for the Nation

USGS 01142500 AYERS BROOK AT RANDOLPH, VT

Orange County, Vermont
Hydrologic Unit Code 01080105
Latitude  43°56'04", Longitude  72°39'30" NAD27
Drainage area 30.5  square miles
Gage datum 630.50 feet above NGVD29
Output formats
Table
Graph
Tab-separated file
peakfq (watstore) format
Reselect output format
Water
Year
Date Gage
Height
(feet)
Stream-
flow
(cfs)
1928 1927-11 16.00Bd  
1940 1940-05-21 5.13 965
1941 1940-12-29 3.27 302
1942 1942-04-16 4.28 640
1943 1943-05-12 3.82 454
1944 1944-04-10 5.31 1,040
1945 1945-04-26 4.63 722
1946 1946-03-09 4.62 718
1947 1947-06-03 5.76 1,310
1948 1948-03-22 4.82 790
1949 1948-12-31 6.41 1,650
1950 1950-04-05 3.72 608
1951 1950-12-05 3.94 696
1952 1952-06-01 7.58 2,280
1953 1953-03-24 4.45 823
1954 1954-04-08 3.61 534
1955 1955-04-10 4.13 758
1956 1956-04-30 3.98 691
1957 1957-01-23   420
1958 1957-12-21 4.37 795
1959 1959-04-08 3.79 606
1960 1959-11-28 5.10 1,070
1961 1961-04-23 3.44 469
1962 1962-04-07 4.63 1,020
1963 1963-04-03 3.53 510
1964 1964-03-05 6.911 1,2002
1965 1965-04-12 2.802,6 139
1966 1966-03-25 3.89 348
1967 1967-04-03 5.22 756
1968 1968-03-22 5.16 739
1969 1969-04-19 5.73 995
1970 1970-04-25 4.77 625
1971 1971-05-04 4.86 656
1972 1972-05-04 6.18 1,100
1973 1973-06-30 9.12 2,600
1974 1973-12-21 5.09 717
1975 1975-04-24 3.94 407
1976 1976-08-10 6.42 666
1977 1977-03-14 6.33 639
1978 1977-10-17 6.15 587
1979 1979-03-25 6.262 641
1980 1980-04-10 5.532 452
1981 1981-05-13 8.26 1,170
1982 1982-04-18 6.17 633
1983 1983-05-04 7.86 1,050
1984 1983-12-13 6.40 685
1985 1985-03-12 5.18 424
1986 1986-03-30   900
1987 1987-03-31 8.43 1,230
1988 1988-04-28 5.30 447
1989 1989-08-05 7.22 882
1990 1989-10-21 6.27 655
1991 1990-10-24 6.41 688
1992 1992-03-11 6.49 886
1993 1993-03-30 5.54 589
1994 1994-04-16 6.98 1,040
1995 1995-01-21 4.48 285
1996 1996-01-27 6.51 873
1997 1996-10-21 5.73 657
1998 1998-06-27 11.93 2,840
1999 1999-04-01 5.76 627
2000 2000-04-04 6.14 748
2001 2000-12-17 7.38 1,200
2002 2002-04-14 8.01 1,460
2003 2003-03-29 5.66 597
2004 2003-11-20 6.13 745
2005 2005-04-03 6.74 955
2006 2006-01-18 6.47 859
2007 2007-07-11 9.50 1,990
2008 2008-04-12 6.69 937
2009 2009-04-04 5.43 530
2010 2010-03-23 6.26 832
2011 2011-08-28 15.04 3,920
2012 2012-03-09 5.19 472
2013 2013-07-04 8.74 1,720
2014 2014-04-15 6.84 1,020
2015 2015-04-14 5.08 456
2016 2016-02-25 6.712 968
2017 2017-07-01 7.31 1,190
2018 2018-04-26 4.98 432
2019 2019-04-15 9.68 2,050
2020 2020-03-13 5.91 697
2021 2021-07-21 6.35 840
?
  Peak Gage-Height Qualification Codes.
?
  Peak Streamflow Qualification Codes.